sensor_id;sensor_type;location;lat;lon;timestamp;temperature;humidity
431;DHT22;202;48.764;9.172;2023-05-02T00:09:34;12.80;66.30
431;DHT22;202;48.764;9.172;2023-05-02T00:12:01;12.80;66.60
431;DHT22;202;48.764;9.172;2023-05-02T00:14:28;12.70;66.80
431;DHT22;202;48.764;9.172;2023-05-02T00:16:55;12.70;66.90
431;DHT22;202;48.764;9.172;2023-05-02T00:19:22;12.60;67.60
431;DHT22;202;48.764;9.172;2023-05-02T00:21:49;12.60;67.40
431;DHT22;202;48.764;9.172;2023-05-02T00:24:16;12.60;67.80
431;DHT22;202;48.764;9.172;2023-05-02T00:26:44;12.60;66.70
431;DHT22;202;48.764;9.172;2023-05-02T00:29:11;12.60;66.60
431;DHT22;202;48.764;9.172;2023-05-02T00:31:39;12.60;66.10
431;DHT22;202;48.764;9.172;2023-05-02T00:34:06;12.50;66.30
431;DHT22;202;48.764;9.172;2023-05-02T00:36:33;12.50;66.20
431;DHT22;202;48.764;9.172;2023-05-02T00:39:00;12.50;67.10
431;DHT22;202;48.764;9.172;2023-05-02T00:41:26;12.50;67.50
431;DHT22;202;48.764;9.172;2023-05-02T00:43:55;12.50;68.00
431;DHT22;202;48.764;9.172;2023-05-02T00:46:22;12.40;68.00
431;DHT22;202;48.764;9.172;2023-05-02T00:48:49;12.40;68.30
431;DHT22;202;48.764;9.172;2023-05-02T00:51:16;12.50;67.10
431;DHT22;202;48.764;9.172;2023-05-02T00:53:43;12.50;67.20
431;DHT22;202;48.764;9.172;2023-05-02T00:56:10;12.40;67.00
431;DHT22;202;48.764;9.172;2023-05-02T00:58:37;12.30;66.70
431;DHT22;202;48.764;9.172;2023-05-02T01:01:19;12.40;67.50
431;DHT22;202;48.764;9.172;2023-05-02T01:04:03;12.40;66.80
431;DHT22;202;48.764;9.172;2023-05-02T01:06:42;12.40;66.90
431;DHT22;202;48.764;9.172;2023-05-02T01:09:22;12.30;67.20
431;DHT22;202;48.764;9.172;2023-05-02T01:11:57;12.30;67.60
431;DHT22;202;48.764;9.172;2023-05-02T01:14:28;12.10;74.40
431;DHT22;202;48.764;9.172;2023-05-02T01:16:58;12.20;68.50
431;DHT22;202;48.764;9.172;2023-05-02T01:19:33;12.20;69.10
431;DHT22;202;48.764;9.172;2023-05-02T01:22:04;12.20;69.10
431;DHT22;202;48.764;9.172;2023-05-02T01:24:37;12.20;73.50
431;DHT22;202;48.764;9.172;2023-05-02T01:27:14;12.20;68.00
431;DHT22;202;48.764;9.172;2023-05-02T01:29:49;12.20;68.80
431;DHT22;202;48.764;9.172;2023-05-02T01:32:19;12.20;68.80
431;DHT22;202;48.764;9.172;2023-05-02T01:34:49;12.30;67.80
431;DHT22;202;48.764;9.172;2023-05-02T01:37:18;12.20;68.10
431;DHT22;202;48.764;9.172;2023-05-02T01:39:46;12.20;68.70
431;DHT22;202;48.764;9.172;2023-05-02T01:42:15;12.20;69.30
431;DHT22;202;48.764;9.172;2023-05-02T01:44:42;12.20;67.60
431;DHT22;202;48.764;9.172;2023-05-02T01:47:11;12.20;67.50
431;DHT22;202;48.764;9.172;2023-05-02T01:49:40;12.20;67.60
431;DHT22;202;48.764;9.172;2023-05-02T01:52:10;12.20;67.50
431;DHT22;202;48.764;9.172;2023-05-02T01:54:39;12.20;67.40
431;DHT22;202;48.764;9.172;2023-05-02T01:57:08;12.20;67.70
431;DHT22;202;48.764;9.172;2023-05-02T01:59:36;12.20;67.00
431;DHT22;202;48.764;9.172;2023-05-02T02:02:06;12.10;67.10
431;DHT22;202;48.764;9.172;2023-05-02T02:04:37;12.10;67.60
431;DHT22;202;48.764;9.172;2023-05-02T02:07:07;12.20;67.00
431;DHT22;202;48.764;9.172;2023-05-02T02:09:35;12.10;67.20
431;DHT22;202;48.764;9.172;2023-05-02T02:12:05;12.10;67.40
431;DHT22;202;48.764;9.172;2023-05-02T02:14:34;12.10;67.20
431;DHT22;202;48.764;9.172;2023-05-02T02:17:05;12.10;67.10
431;DHT22;202;48.764;9.172;2023-05-02T02:19:33;12.10;72.30
431;DHT22;202;48.764;9.172;2023-05-02T02:22:04;12.10;68.30
431;DHT22;202;48.764;9.172;2023-05-02T02:24:34;12.30;70.30
431;DHT22;202;48.764;9.172;2023-05-02T02:27:02;12.10;68.60
431;DHT22;202;48.764;9.172;2023-05-02T02:29:29;12.00;69.20
431;DHT22;202;48.764;9.172;2023-05-02T02:31:56;12.00;69.00
431;DHT22;202;48.764;9.172;2023-05-02T02:34:23;11.90;68.50
431;DHT22;202;48.764;9.172;2023-05-02T02:36:54;12.00;69.00
431;DHT22;202;48.764;9.172;2023-05-02T02:39:45;12.00;68.00
431;DHT22;202;48.764;9.172;2023-05-02T02:42:24;12.00;68.10
431;DHT22;202;48.764;9.172;2023-05-02T02:44:57;11.90;72.20
431;DHT22;202;48.764;9.172;2023-05-02T02:47:31;12.00;67.40
431;DHT22;202;48.764;9.172;2023-05-02T02:50:10;12.00;69.80
431;DHT22;202;48.764;9.172;2023-05-02T02:52:49;12.20;67.30
431;DHT22;202;48.764;9.172;2023-05-02T02:55:35;12.10;67.40
431;DHT22;202;48.764;9.172;2023-05-02T02:58:14;12.10;67.70
431;DHT22;202;48.764;9.172;2023-05-02T03:00:45;12.10;67.70
431;DHT22;202;48.764;9.172;2023-05-02T03:03:13;12.10;67.50
431;DHT22;202;48.764;9.172;2023-05-02T03:05:41;12.10;67.60
431;DHT22;202;48.764;9.172;2023-05-02T03:08:09;12.10;67.50
431;DHT22;202;48.764;9.172;2023-05-02T03:10:37;12.00;68.60
431;DHT22;202;48.764;9.172;2023-05-02T03:13:04;12.00;68.60
431;DHT22;202;48.764;9.172;2023-05-02T03:16:00;12.00;69.50
431;DHT22;202;48.764;9.172;2023-05-02T03:18:32;12.00;69.40
431;DHT22;202;48.764;9.172;2023-05-02T03:20:59;12.00;68.40
431;DHT22;202;48.764;9.172;2023-05-02T03:23:26;11.90;68.50
431;DHT22;202;48.764;9.172;2023-05-02T03:25:54;11.90;69.40
431;DHT22;202;48.764;9.172;2023-05-02T03:28:21;11.90;69.40
431;DHT22;202;48.764;9.172;2023-05-02T03:30:48;11.90;68.70
431;DHT22;202;48.764;9.172;2023-05-02T03:33:15;12.00;69.40
431;DHT22;202;48.764;9.172;2023-05-02T03:35:41;12.00;69.50
431;DHT22;202;48.764;9.172;2023-05-02T03:38:08;12.00;69.70
431;DHT22;202;48.764;9.172;2023-05-02T03:40:35;12.10;69.60
431;DHT22;202;48.764;9.172;2023-05-02T03:43:03;12.10;69.10
431;DHT22;202;48.764;9.172;2023-05-02T03:45:30;12.10;69.10
431;DHT22;202;48.764;9.172;2023-05-02T03:47:57;12.20;69.70
431;DHT22;202;48.764;9.172;2023-05-02T03:50:24;12.10;69.60
431;DHT22;202;48.764;9.172;2023-05-02T03:52:50;12.10;69.20
431;DHT22;202;48.764;9.172;2023-05-02T03:55:17;12.10;68.90
431;DHT22;202;48.764;9.172;2023-05-02T03:57:44;12.20;70.20
431;DHT22;202;48.764;9.172;2023-05-02T04:00:13;12.30;69.10
431;DHT22;202;48.764;9.172;2023-05-02T04:02:41;12.20;68.90
431;DHT22;202;48.764;9.172;2023-05-02T04:05:08;12.30;68.60
431;DHT22;202;48.764;9.172;2023-05-02T04:07:35;12.20;72.30
431;DHT22;202;48.764;9.172;2023-05-02T04:10:03;12.40;69.10
431;DHT22;202;48.764;9.172;2023-05-02T04:12:30;12.40;70.00
431;DHT22;202;48.764;9.172;2023-05-02T04:14:57;12.40;69.00
431;DHT22;202;48.764;9.172;2023-05-02T04:17:25;12.50;69.10
431;DHT22;202;48.764;9.172;2023-05-02T04:19:52;12.40;68.70
431;DHT22;202;48.764;9.172;2023-05-02T04:22:19;12.50;69.30
431;DHT22;202;48.764;9.172;2023-05-02T04:24:45;12.50;68.90
431;DHT22;202;48.764;9.172;2023-05-02T04:27:12;12.60;68.90
431;DHT22;202;48.764;9.172;2023-05-02T04:29:39;12.60;68.10
431;DHT22;202;48.764;9.172;2023-05-02T04:32:06;12.70;67.80
431;DHT22;202;48.764;9.172;2023-05-02T04:34:34;12.60;67.00
431;DHT22;202;48.764;9.172;2023-05-02T04:37:01;12.60;67.50
431;DHT22;202;48.764;9.172;2023-05-02T04:39:28;12.70;66.70
431;DHT22;202;48.764;9.172;2023-05-02T04:41:55;12.70;66.70
431;DHT22;202;48.764;9.172;2023-05-02T04:44:22;12.80;67.50
431;DHT22;202;48.764;9.172;2023-05-02T04:46:48;12.80;66.20
431;DHT22;202;48.764;9.172;2023-05-02T04:49:15;12.80;66.10
431;DHT22;202;48.764;9.172;2023-05-02T04:51:44;12.80;65.40
431;DHT22;202;48.764;9.172;2023-05-02T04:54:11;12.80;66.50
431;DHT22;202;48.764;9.172;2023-05-02T04:56:38;12.70;66.60
431;DHT22;202;48.764;9.172;2023-05-02T04:59:05;12.80;66.60
431;DHT22;202;48.764;9.172;2023-05-02T05:01:32;12.70;69.40
431;DHT22;202;48.764;9.172;2023-05-02T05:04:01;12.70;66.10
431;DHT22;202;48.764;9.172;2023-05-02T05:06:28;12.80;65.40
431;DHT22;202;48.764;9.172;2023-05-02T05:08:58;12.80;65.40
431;DHT22;202;48.764;9.172;2023-05-02T05:11:27;12.80;64.90
431;DHT22;202;48.764;9.172;2023-05-02T05:13:54;12.90;65.10
431;DHT22;202;48.764;9.172;2023-05-02T05:16:23;12.80;64.70
431;DHT22;202;48.764;9.172;2023-05-02T05:21:28;12.90;65.10
431;DHT22;202;48.764;9.172;2023-05-02T05:23:57;12.90;65.10
431;DHT22;202;48.764;9.172;2023-05-02T05:26:24;13.00;65.60
431;DHT22;202;48.764;9.172;2023-05-02T05:28:51;12.90;65.50
431;DHT22;202;48.764;9.172;2023-05-02T05:31:18;13.00;65.60
431;DHT22;202;48.764;9.172;2023-05-02T05:33:45;13.00;65.60
431;DHT22;202;48.764;9.172;2023-05-02T05:36:12;13.00;65.60
431;DHT22;202;48.764;9.172;2023-05-02T05:38:40;13.20;64.50
431;DHT22;202;48.764;9.172;2023-05-02T05:41:08;13.20;63.30
431;DHT22;202;48.764;9.172;2023-05-02T05:43:35;13.30;63.50
431;DHT22;202;48.764;9.172;2023-05-02T05:46:02;13.40;63.10
431;DHT22;202;48.764;9.172;2023-05-02T05:48:29;13.50;61.90
431;DHT22;202;48.764;9.172;2023-05-02T05:50:56;13.60;61.20
431;DHT22;202;48.764;9.172;2023-05-02T05:53:22;13.60;61.20
431;DHT22;202;48.764;9.172;2023-05-02T05:55:49;13.70;60.30
431;DHT22;202;48.764;9.172;2023-05-02T05:58:17;13.70;60.60
431;DHT22;202;48.764;9.172;2023-05-02T06:00:44;13.80;60.30
431;DHT22;202;48.764;9.172;2023-05-02T06:03:12;13.80;59.50
431;DHT22;202;48.764;9.172;2023-05-02T06:05:38;13.90;56.70
431;DHT22;202;48.764;9.172;2023-05-02T08:01:35;14.80;56.10
431;DHT22;202;48.764;9.172;2023-05-02T08:04:03;14.90;53.90
431;DHT22;202;48.764;9.172;2023-05-02T08:06:54;14.80;54.10
431;DHT22;202;48.764;9.172;2023-05-02T08:09:40;14.80;55.50
431;DHT22;202;48.764;9.172;2023-05-02T08:12:11;14.80;55.50
431;DHT22;202;48.764;9.172;2023-05-02T08:14:43;14.70;55.00
431;DHT22;202;48.764;9.172;2023-05-02T08:17:12;14.70;55.50
431;DHT22;202;48.764;9.172;2023-05-02T08:19:41;14.60;55.00
431;DHT22;202;48.764;9.172;2023-05-02T08:22:09;14.60;55.40
431;DHT22;202;48.764;9.172;2023-05-02T08:24:36;14.60;55.70
431;DHT22;202;48.764;9.172;2023-05-02T08:27:03;14.60;55.50
431;DHT22;202;48.764;9.172;2023-05-02T08:29:33;14.70;56.30
431;DHT22;202;48.764;9.172;2023-05-02T08:32:02;14.70;56.40
431;DHT22;202;48.764;9.172;2023-05-02T08:34:34;14.80;55.50
431;DHT22;202;48.764;9.172;2023-05-02T08:37:07;14.90;55.10
431;DHT22;202;48.764;9.172;2023-05-02T08:39:34;15.10;55.40
431;DHT22;202;48.764;9.172;2023-05-02T08:42:14;15.10;53.90
431;DHT22;202;48.764;9.172;2023-05-02T08:54:41;15.60;51.70
431;DHT22;202;48.764;9.172;2023-05-02T08:57:24;15.50;52.30
431;DHT22;202;48.764;9.172;2023-05-02T09:00:02;15.40;52.20
431;DHT22;202;48.764;9.172;2023-05-02T09:06:26;15.60;53.50
431;DHT22;202;48.764;9.172;2023-05-02T09:09:23;15.60;52.70
431;DHT22;202;48.764;9.172;2023-05-02T09:12:11;15.90;51.90
431;DHT22;202;48.764;9.172;2023-05-02T09:15:15;15.90;52.00
431;DHT22;202;48.764;9.172;2023-05-02T09:17:56;16.10;52.00
431;DHT22;202;48.764;9.172;2023-05-02T09:20:26;16.20;50.20
431;DHT22;202;48.764;9.172;2023-05-02T09:26:54;16.30;49.30
431;DHT22;202;48.764;9.172;2023-05-02T09:29:34;16.40;48.90
431;DHT22;202;48.764;9.172;2023-05-02T09:32:45;16.50;48.40
431;DHT22;202;48.764;9.172;2023-05-02T09:47:11;16.80;47.50
431;DHT22;202;48.764;9.172;2023-05-02T09:57:54;17.60;44.70
431;DHT22;202;48.764;9.172;2023-05-02T10:28:06;18.20;41.00
431;DHT22;202;48.764;9.172;2023-05-02T10:31:29;18.50;38.70
431;DHT22;202;48.764;9.172;2023-05-02T10:34:37;18.60;40.50
431;DHT22;202;48.764;9.172;2023-05-02T10:37:17;19.00;39.50
431;DHT22;202;48.764;9.172;2023-05-02T10:40:42;19.40;38.50
431;DHT22;202;48.764;9.172;2023-05-02T10:44:10;19.30;36.00
431;DHT22;202;48.764;9.172;2023-05-02T10:47:05;19.50;35.70
431;DHT22;202;48.764;9.172;2023-05-02T10:50:30;19.40;35.30
431;DHT22;202;48.764;9.172;2023-05-02T11:25:49;18.90;34.10
431;DHT22;202;48.764;9.172;2023-05-02T11:28:39;18.90;35.00
431;DHT22;202;48.764;9.172;2023-05-02T11:31:07;18.80;35.60
431;DHT22;202;48.764;9.172;2023-05-02T11:33:35;18.70;35.30
431;DHT22;202;48.764;9.172;2023-05-02T11:36:02;18.60;35.30
431;DHT22;202;48.764;9.172;2023-05-02T12:20:56;18.60;36.00
431;DHT22;202;48.764;9.172;2023-05-02T12:23:26;18.60;35.70
431;DHT22;202;48.764;9.172;2023-05-02T13:17:54;18.70;35.10
431;DHT22;202;48.764;9.172;2023-05-02T13:20:21;18.60;35.20
431;DHT22;202;48.764;9.172;2023-05-02T13:22:48;18.60;36.50
431;DHT22;202;48.764;9.172;2023-05-02T13:25:15;18.50;35.20
431;DHT22;202;48.764;9.172;2023-05-02T13:27:42;18.40;35.10
431;DHT22;202;48.764;9.172;2023-05-02T15:48:38;18.40;31.70
431;DHT22;202;48.764;9.172;2023-05-02T15:51:25;18.30;32.00
431;DHT22;202;48.764;9.172;2023-05-02T15:54:45;18.20;30.30
431;DHT22;202;48.764;9.172;2023-05-02T15:57:52;18.20;30.80
431;DHT22;202;48.764;9.172;2023-05-02T16:00:38;18.30;30.90
431;DHT22;202;48.764;9.172;2023-05-02T16:03:36;18.20;30.80
431;DHT22;202;48.764;9.172;2023-05-02T16:06:09;18.20;30.80
431;DHT22;202;48.764;9.172;2023-05-02T16:09:03;18.30;30.90
431;DHT22;202;48.764;9.172;2023-05-02T16:11:45;18.30;31.60
431;DHT22;202;48.764;9.172;2023-05-02T16:23:34;18.10;30.70
431;DHT22;202;48.764;9.172;2023-05-02T16:26:23;18.10;30.70
431;DHT22;202;48.764;9.172;2023-05-02T16:29:00;18.10;29.40
431;DHT22;202;48.764;9.172;2023-05-02T16:31:32;18.00;29.20
431;DHT22;202;48.764;9.172;2023-05-02T16:44:50;18.10;28.50
431;DHT22;202;48.764;9.172;2023-05-02T16:47:25;18.10;29.20
431;DHT22;202;48.764;9.172;2023-05-02T16:50:12;18.10;28.10
431;DHT22;202;48.764;9.172;2023-05-02T16:53:13;18.10;28.00
431;DHT22;202;48.764;9.172;2023-05-02T16:56:30;18.10;27.70
431;DHT22;202;48.764;9.172;2023-05-02T16:59:10;18.20;27.10
431;DHT22;202;48.764;9.172;2023-05-02T17:02:03;18.10;26.60
431;DHT22;202;48.764;9.172;2023-05-02T17:07:59;18.10;26.50
431;DHT22;202;48.764;9.172;2023-05-02T17:11:02;18.10;27.10
431;DHT22;202;48.764;9.172;2023-05-02T17:13:56;18.00;27.10
431;DHT22;202;48.764;9.172;2023-05-02T17:16:42;18.00;27.00
431;DHT22;202;48.764;9.172;2023-05-02T17:19:26;18.00;27.30
431;DHT22;202;48.764;9.172;2023-05-02T17:22:04;17.90;26.90
431;DHT22;202;48.764;9.172;2023-05-02T17:24:55;17.90;26.90
431;DHT22;202;48.764;9.172;2023-05-02T17:27:54;17.90;26.50
431;DHT22;202;48.764;9.172;2023-05-02T17:30:50;17.90;26.30
431;DHT22;202;48.764;9.172;2023-05-02T17:33:36;17.80;26.40
431;DHT22;202;48.764;9.172;2023-05-02T17:36:56;17.80;26.40
431;DHT22;202;48.764;9.172;2023-05-02T17:39:35;17.70;25.90
431;DHT22;202;48.764;9.172;2023-05-02T17:42:23;17.70;25.50
431;DHT22;202;48.764;9.172;2023-05-02T17:45:11;17.80;26.10
431;DHT22;202;48.764;9.172;2023-05-02T17:47:57;17.70;25.90
431;DHT22;202;48.764;9.172;2023-05-02T17:50:51;17.70;26.30
431;DHT22;202;48.764;9.172;2023-05-02T17:53:45;17.70;26.50
431;DHT22;202;48.764;9.172;2023-05-02T17:56:37;17.70;26.90
431;DHT22;202;48.764;9.172;2023-05-02T17:59:39;17.60;26.70
431;DHT22;202;48.764;9.172;2023-05-02T18:02:30;17.60;27.00
431;DHT22;202;48.764;9.172;2023-05-02T18:08:14;17.60;28.20
431;DHT22;202;48.764;9.172;2023-05-02T18:11:26;17.60;28.30
431;DHT22;202;48.764;9.172;2023-05-02T18:14:23;17.50;28.90
431;DHT22;202;48.764;9.172;2023-05-02T18:17:28;17.40;29.50
431;DHT22;202;48.764;9.172;2023-05-02T18:20:45;17.30;30.00
431;DHT22;202;48.764;9.172;2023-05-02T18:23:25;17.30;30.00
431;DHT22;202;48.764;9.172;2023-05-02T18:26:46;17.30;30.10
431;DHT22;202;48.764;9.172;2023-05-02T18:33:29;17.20;31.10
431;DHT22;202;48.764;9.172;2023-05-02T18:36:42;17.10;31.30
431;DHT22;202;48.764;9.172;2023-05-02T18:40:06;16.90;31.50
431;DHT22;202;48.764;9.172;2023-05-02T18:46:37;16.90;32.10
431;DHT22;202;48.764;9.172;2023-05-02T18:49:39;16.90;32.60
431;DHT22;202;48.764;9.172;2023-05-02T18:52:26;16.80;32.40
431;DHT22;202;48.764;9.172;2023-05-02T18:55:17;16.70;32.90
431;DHT22;202;48.764;9.172;2023-05-02T18:58:13;16.70;32.90
431;DHT22;202;48.764;9.172;2023-05-02T19:01:11;16.60;33.20
431;DHT22;202;48.764;9.172;2023-05-02T19:04:11;16.70;33.30
431;DHT22;202;48.764;9.172;2023-05-02T19:07:23;16.60;33.20
431;DHT22;202;48.764;9.172;2023-05-02T19:10:17;16.50;33.90
431;DHT22;202;48.764;9.172;2023-05-02T19:13:27;16.40;34.30
431;DHT22;202;48.764;9.172;2023-05-02T19:22:46;16.40;35.40
431;DHT22;202;48.764;9.172;2023-05-02T19:25:38;16.40;35.80
431;DHT22;202;48.764;9.172;2023-05-02T19:28:54;16.40;35.80
431;DHT22;202;48.764;9.172;2023-05-02T19:32:00;16.40;36.20
431;DHT22;202;48.764;9.172;2023-05-02T19:38:12;16.30;36.50
431;DHT22;202;48.764;9.172;2023-05-02T19:41:11;16.30;36.80
431;DHT22;202;48.764;9.172;2023-05-02T19:44:08;16.30;37.10
431;DHT22;202;48.764;9.172;2023-05-02T19:47:02;16.30;37.50
431;DHT22;202;48.764;9.172;2023-05-02T19:49:59;16.20;37.00
431;DHT22;202;48.764;9.172;2023-05-02T19:56:04;16.00;37.50
431;DHT22;202;48.764;9.172;2023-05-02T19:59:08;16.00;38.10
431;DHT22;202;48.764;9.172;2023-05-02T20:01:57;15.90;39.00
431;DHT22;202;48.764;9.172;2023-05-02T20:04:31;15.90;37.90
431;DHT22;202;48.764;9.172;2023-05-02T20:10:10;15.80;38.00
431;DHT22;202;48.764;9.172;2023-05-02T20:19:48;15.80;38.90
431;DHT22;202;48.764;9.172;2023-05-02T20:22:49;15.80;38.90
431;DHT22;202;48.764;9.172;2023-05-02T20:29:13;15.70;38.80
431;DHT22;202;48.764;9.172;2023-05-02T20:35:17;15.50;39.40
431;DHT22;202;48.764;9.172;2023-05-02T20:38:33;15.50;39.90
431;DHT22;202;48.764;9.172;2023-05-02T20:41:32;15.40;39.70
431;DHT22;202;48.764;9.172;2023-05-02T20:57:47;15.30;41.00
431;DHT22;202;48.764;9.172;2023-05-02T21:01:05;15.20;40.80
431;DHT22;202;48.764;9.172;2023-05-02T21:03:38;15.20;40.70
431;DHT22;202;48.764;9.172;2023-05-02T21:06:36;15.20;40.90
431;DHT22;202;48.764;9.172;2023-05-02T21:09:34;15.10;41.60
431;DHT22;202;48.764;9.172;2023-05-02T21:12:31;15.20;41.20
431;DHT22;202;48.764;9.172;2023-05-02T21:21:56;15.10;40.80
431;DHT22;202;48.764;9.172;2023-05-02T21:24:40;15.00;41.40
431;DHT22;202;48.764;9.172;2023-05-02T21:27:38;14.90;42.30
431;DHT22;202;48.764;9.172;2023-05-02T21:30:25;14.90;42.10
431;DHT22;202;48.764;9.172;2023-05-02T21:33:27;15.00;41.50
431;DHT22;202;48.764;9.172;2023-05-02T21:36:21;14.80;42.30
431;DHT22;202;48.764;9.172;2023-05-02T21:39:16;14.80;42.50
431;DHT22;202;48.764;9.172;2023-05-02T21:42:25;14.80;42.50
431;DHT22;202;48.764;9.172;2023-05-02T21:45:08;14.80;42.10
431;DHT22;202;48.764;9.172;2023-05-02T21:48:00;14.80;41.70
431;DHT22;202;48.764;9.172;2023-05-02T21:54:26;14.80;41.50
431;DHT22;202;48.764;9.172;2023-05-02T22:01:21;14.70;42.00
431;DHT22;202;48.764;9.172;2023-05-02T22:04:35;14.50;42.70
431;DHT22;202;48.764;9.172;2023-05-02T22:07:54;14.50;42.70
431;DHT22;202;48.764;9.172;2023-05-02T22:10:58;14.50;42.70
431;DHT22;202;48.764;9.172;2023-05-02T22:43:54;14.00;44.70
431;DHT22;202;48.764;9.172;2023-05-02T22:46:20;13.90;44.70
431;DHT22;202;48.764;9.172;2023-05-02T22:48:47;13.90;44.80
431;DHT22;202;48.764;9.172;2023-05-02T22:51:14;13.90;45.20
431;DHT22;202;48.764;9.172;2023-05-02T22:53:41;13.90;45.20
431;DHT22;202;48.764;9.172;2023-05-02T22:56:08;13.80;45.40
431;DHT22;202;48.764;9.172;2023-05-02T22:58:34;13.80;45.00
431;DHT22;202;48.764;9.172;2023-05-02T23:01:02;13.60;45.30
431;DHT22;202;48.764;9.172;2023-05-02T23:03:29;13.60;46.20
431;DHT22;202;48.764;9.172;2023-05-02T23:05:56;13.60;45.80
431;DHT22;202;48.764;9.172;2023-05-02T23:08:23;13.60;46.40
431;DHT22;202;48.764;9.172;2023-05-02T23:10:50;13.60;46.30
431;DHT22;202;48.764;9.172;2023-05-02T23:13:17;13.60;46.80
431;DHT22;202;48.764;9.172;2023-05-02T23:15:44;13.60;46.90
431;DHT22;202;48.764;9.172;2023-05-02T23:18:12;13.60;46.90
431;DHT22;202;48.764;9.172;2023-05-02T23:20:39;13.60;46.90
431;DHT22;202;48.764;9.172;2023-05-02T23:23:06;13.60;46.90
431;DHT22;202;48.764;9.172;2023-05-02T23:25:34;13.60;46.70
431;DHT22;202;48.764;9.172;2023-05-02T23:28:01;13.60;46.90
431;DHT22;202;48.764;9.172;2023-05-02T23:30:28;13.60;46.90
431;DHT22;202;48.764;9.172;2023-05-02T23:32:56;13.50;46.80
431;DHT22;202;48.764;9.172;2023-05-02T23:35:24;13.50;46.80
431;DHT22;202;48.764;9.172;2023-05-02T23:37:51;13.40;47.10
431;DHT22;202;48.764;9.172;2023-05-02T23:40:19;13.50;47.00
431;DHT22;202;48.764;9.172;2023-05-02T23:42:46;13.50;47.00
431;DHT22;202;48.764;9.172;2023-05-02T23:45:12;13.50;47.10
431;DHT22;202;48.764;9.172;2023-05-02T23:47:39;13.50;47.50
431;DHT22;202;48.764;9.172;2023-05-02T23:50:07;13.50;47.70
431;DHT22;202;48.764;9.172;2023-05-02T23:52:35;13.50;47.80
431;DHT22;202;48.764;9.172;2023-05-02T23:55:02;13.50;47.50
431;DHT22;202;48.764;9.172;2023-05-02T23:57:34;13.40;47.70
